SE Lincoln WX Station Historical Data
 
Daily Summary for July 08, 2020 Units:  English    Metric   Both
Daily Weekly Monthly Yearly Custom
  Current: High: Low: Average:
Temperature: 76.5 °F 82.2 °F 76.5 °F 79.4 °F
Dew Point: 68.7 °F 71.2 °F 68.6 °F 69.8 °F
Humidity: 77% 77% 68% 73%
Wind Speed: 2.6mph 5.7mph 1.4mph 3.5mph
Wind Gust: 6mph 13mph - -
WindSouth - - SSE
Pressure: 29.80 in 29.84 in 29.79 in -
Precipitation: 0.00 in      
 
Tabular Data for July 08, 2020
Time Temperature Dew Point Pressure Wind Wind Speed Wind Gust Humidity Rainfall Rate (Hourly) solar
00:04 82.2 °F 71.2 °F 29.84 in SE 4.2 mph 7 mph 69.4% 0.00 in 0 W/m2
00:09 82.2 °F 71 °F 29.84 in SE 4.6 mph 11 mph 69% 0.00 in 0 W/m2
00:14 82.1 °F 70.9 °F 29.84 in SE 3.2 mph 8 mph 69% 0.00 in 0 W/m2
00:19 82 °F 70.8 °F 29.84 in SE 4.4 mph 9 mph 69% 0.00 in 0 W/m2
00:24 82 °F 70.6 °F 29.84 in SE 4.6 mph 9 mph 68.5% 0.00 in 0 W/m2
00:29 82.1 °F 70.5 °F 29.83 in SSE 3.9 mph 9 mph 68% 0.00 in 0 W/m2
00:34 82 °F 70.4 °F 29.83 in SE 5.2 mph 11 mph 68% 0.00 in 0 W/m2
00:39 82 °F 70.5 °F 29.84 in SSE 3.7 mph 11 mph 68.3% 0.00 in 0 W/m2
00:44 81.8 °F 70.7 °F 29.84 in SE 5.3 mph 13 mph 69% 0.00 in 0 W/m2
00:49 81.6 °F 70.8 °F 29.83 in SSE 4.7 mph 12 mph 70% 0.00 in 0 W/m2
00:54 81.3 °F 70.6 °F 29.83 in SSE 3.5 mph 8 mph 70% 0.00 in 0 W/m2
00:59 81.2 °F 70.5 °F 29.83 in SE 4.5 mph 10 mph 70% 0.00 in 0 W/m2
01:04 81.2 °F 70.5 °F 29.84 in SE 4.8 mph 11 mph 70% 0.00 in 0 W/m2
01:09 81.1 °F 70.7 °F 29.84 in SE 3.9 mph 12 mph 70.7% 0.00 in 0 W/m2
01:14 81.1 °F 70.8 °F 29.84 in SE 5.7 mph 9 mph 71% 0.00 in 0 W/m2
01:19 81 °F 70.7 °F 29.83 in SSE 3.6 mph 11 mph 71% 0.00 in 0 W/m2
01:24 80.9 °F 70.6 °F 29.83 in SE 3.8 mph 11 mph 71% 0.00 in 0 W/m2
01:29 80.7 °F 70.5 °F 29.82 in SSE 3.7 mph 9 mph 71.1% 0.00 in 0 W/m2
01:34 80.6 °F 70.7 °F 29.82 in SSE 4.5 mph 8 mph 72% 0.00 in 0 W/m2
01:39 80.5 °F 70.6 °F 29.82 in SSE 3.2 mph 7 mph 72% 0.00 in 0 W/m2
01:44 80.4 °F 70.6 °F 29.82 in SSE 4.4 mph 11 mph 72% 0.00 in 0 W/m2
01:49 80.4 °F 70.5 °F 29.82 in SSE 3.5 mph 8 mph 71.9% 0.00 in 0 W/m2
01:54 80.4 °F 70.4 °F 29.82 in SSE 2.8 mph 8 mph 71.8% 0.00 in 0 W/m2
01:59 80.3 °F 70.2 °F 29.82 in SSE 4.3 mph 10 mph 71.4% 0.00 in 0 W/m2
02:04 80.3 °F 70 °F 29.82 in SSE 3.6 mph 8 mph 71% 0.00 in 0 W/m2
02:09 80.2 °F 69.9 °F 29.81 in SSE 4.9 mph 11 mph 71% 0.00 in 0 W/m2
02:14 80.2 °F 69.9 °F 29.81 in SSE 4 mph 11 mph 71% 0.00 in 0 W/m2
02:19 80.2 °F 69.9 °F 29.81 in SSE 4.3 mph 8 mph 71% 0.00 in 0 W/m2
02:24 80.1 °F 69.9 °F 29.81 in South 3.8 mph 9 mph 71% 0.00 in 0 W/m2
02:29 80.1 °F 69.9 °F 29.81 in SSE 4.3 mph 8 mph 71% 0.00 in 0 W/m2
02:34 80.1 °F 69.7 °F 29.81 in South 3 mph 9 mph 70.6% 0.00 in 0 W/m2
02:39 80.1 °F 69.5 °F 29.81 in SSE 3.4 mph 8 mph 70.2% 0.00 in 0 W/m2
02:44 80 °F 69.4 °F 29.80 in South 3.6 mph 7 mph 70% 0.00 in 0 W/m2
02:49 79.9 °F 69.3 °F 29.80 in SSW 3.6 mph 9 mph 70.2% 0.00 in 0 W/m2
02:54 79.9 °F 69.6 °F 29.80 in South 3.8 mph 9 mph 70.8% 0.00 in 0 W/m2
02:59 79.8 °F 69.6 °F 29.80 in SSE 3.4 mph 8 mph 71% 0.00 in 0 W/m2
03:04 79.7 °F 69.5 °F 29.81 in South 3.7 mph 9 mph 71% 0.00 in 0 W/m2
03:09 79.7 °F 69.5 °F 29.81 in South 3.5 mph 7 mph 71% 0.00 in 0 W/m2
03:14 79.6 °F 69.7 °F 29.81 in South 3.3 mph 7 mph 71.6% 0.00 in 0 W/m2
03:19 79.4 °F 69.6 °F 29.80 in SSE 4.1 mph 12 mph 72% 0.00 in 0 W/m2
03:24 79.3 °F 69.6 °F 29.80 in SSE 4.6 mph 9 mph 72.3% 0.00 in 0 W/m2
03:29 79 °F 69.7 °F 29.80 in SSW 2.3 mph 8 mph 73% 0.00 in 0 W/m2
03:34 78.8 °F 69.6 °F 29.80 in South 2.8 mph 7 mph 73.4% 0.00 in 0 W/m2
03:39 78.7 °F 69.7 °F 29.80 in South 1.4 mph 5 mph 74% 0.00 in 0 W/m2
03:44 78.5 °F 69.5 °F 29.80 in South 2.4 mph 7 mph 74% 0.00 in 0 W/m2
03:49 78.3 °F 69.7 °F 29.80 in SSW 2.5 mph 7 mph 75% 0.00 in 0 W/m2
03:54 78.1 °F 69.6 °F 29.80 in South 3.1 mph 8 mph 75% 0.00 in 0 W/m2
03:59 78 °F 69.4 °F 29.80 in South 2.6 mph 8 mph 75% 0.00 in 0 W/m2
04:04 77.8 °F 69.6 °F 29.80 in South 3 mph 6 mph 76% 0.00 in 0 W/m2
04:09 77.7 °F 69.5 °F 29.80 in SSE 3.2 mph 6 mph 76% 0.00 in 0 W/m2
04:14 77.5 °F 69.4 °F 29.79 in SSW 2.2 mph 6 mph 76% 0.00 in 0 W/m2
04:19 77.4 °F 69.2 °F 29.79 in SSE 3 mph 7 mph 76% 0.00 in 0 W/m2
04:24 77.3 °F 69.1 °F 29.79 in South 3.1 mph 7 mph 76% 0.00 in 0 W/m2
04:29 77.2 °F 69.1 °F 29.79 in South 2.1 mph 9 mph 76% 0.00 in 0 W/m2
04:34 77.1 °F 69 °F 29.79 in SSE 2.4 mph 6 mph 76% 0.00 in 0 W/m2
04:39 77.1 °F 68.9 °F 29.79 in South 2 mph 6 mph 76% 0.00 in 0 W/m2
04:44 77 °F 68.9 °F 29.79 in South 2.1 mph 7 mph 76% 0.00 in 0 W/m2
04:49 77 °F 68.8 °F 29.79 in South 2.4 mph 7 mph 76% 0.00 in 0 W/m2
04:54 76.9 °F 68.8 °F 29.79 in South 2.2 mph 7 mph 76% 0.00 in 0 W/m2
04:59 76.9 °F 68.8 °F 29.79 in South 2.7 mph 7 mph 76% 0.00 in 0 W/m2
05:04 76.9 °F 68.8 °F 29.79 in South 2.6 mph 6 mph 76% 0.00 in 0 W/m2
05:09 76.9 °F 68.8 °F 29.79 in SSW 2.9 mph 7 mph 76% 0.00 in 0 W/m2
05:14 76.8 °F 68.7 °F 29.79 in SSW 2.4 mph 6 mph 76% 0.00 in 0 W/m2
05:19 76.7 °F 68.6 °F 29.79 in SSW 2.9 mph 6 mph 76% 0.00 in 0 W/m2
05:24 76.6 °F 68.9 °F 29.80 in South 2.7 mph 6 mph 77% 0.00 in 0 W/m2
05:29 76.5 °F 68.8 °F 29.80 in SSW 3 mph 7 mph 77% 0.00 in 0 W/m2
05:34 76.5 °F 68.7 °F 29.80 in South 2.6 mph 6 mph 77% 0.00 in 0 W/m2
66th and South
Compliments of Weather Underground - 6.46 mb